• Join FlightAware (Why Join?)
  • Login
  • US Flag 
Gobble Gobble! 
03:48PM EST


 

Airport Tracker/Info


-or-


 

Live Flight TrackerFlight Track Log ✈ SWA1802 ✈ 21-Jun-2013 ✈ KMDW - KLAX

Flight Track Log - Related Links

Times and Time Zones

All times are in EDT time to prevent confusion due to time zone crossing. See the SWA1802 flight status page for this flight to view local times or setup timezone preferences in your user account.

Time Position Orientation Groundspeed Altitude Reporting Facility
EDT Latitude Longitude Course Direction KTS MPH feet Rate Location/Type
07:18PM 41.7925 -87.8369 283° West 198 228 3,100  Level Chicago Center
07:19PM 41.7736 -87.9186 253° West 224 258 4,100 2,160 Climbing Chicago Center
07:20PM 41.8031 -88.0278 290° West 260 299 7,600 2,940 Climbing Chicago Center
07:21PM 41.8172 -88.1194 282° West 263 303 10,200 1,980 Climbing Chicago Center
07:22PM 41.8108 -88.2233 265° West 282 325 11,800 1,560 Climbing Chicago Center
07:23PM 41.9281 -88.6350 283° West  Level FlightAware Approximate
07:23PM 41.7867 -88.3472 255° West 345 397 13,500  Level Chicago Center
07:24PM 41.7556 -88.5056 255° West 368 423 16,100 2,160 Climbing Chicago Center
07:25PM 41.7281 -88.6458 255° West 386 444 18,000 1,860 Climbing Chicago Center
07:26PM 41.6997 -88.7911 255° West 401 461 20,000 1,740 Climbing Chicago Center
07:27PM 41.6706 -88.9411 255° West 419 482 21,700 2,100 Climbing Chicago Center
07:28PM 41.6339 -89.1219 255° West 423 487 24,400 2,100 Climbing Chicago Center
07:29PM 41.6050 -89.2731 256° West 423 487 26,100 1,380 Climbing Chicago Center
07:30PM 41.5800 -89.4267 258° West 426 490 27,300 1,140 Climbing Chicago Center
07:31PM 41.5531 -89.5925 258° West 437 503 28,500 1,200 Climbing Chicago Center
07:32PM 41.5244 -89.7528 257° West 445 512 29,900 1,320 Climbing Chicago Center
07:33PM 41.4964 -89.9128 257° West 445 512 31,300 1,440 Climbing Chicago Center
07:34PM 41.4642 -90.1031 257° West 443 510 32,900 1,260 Climbing Chicago Center
07:35PM 41.4364 -90.2597 257° West 439 505 34,000 960 Climbing Chicago Center
07:36PM 41.4092 -90.4150 257° West 436 502 34,900 780 Climbing Chicago Center
07:37PM 41.3814 -90.5714 257° West 436 502 35,700 480 Climbing Chicago Center
07:39PM 41.3503 -90.7319 256° West 446 513 36,000 120 Climbing Chicago Center
07:40PM 41.3225 -90.8903 257° West 445 512 36,000  Level Chicago Center
07:41PM 41.2975 -91.0797 260° West 438 504 36,000  Level Chicago Center
07:42PM 41.2747 -91.2353 259° West 432 497 36,000  Level Chicago Center
07:43PM 41.2550 -91.3772 260° West 428 493 36,000  Level Chicago Center
07:44PM 41.2317 -91.5425 259° West 423 487 36,000  Level Chicago Center
07:45PM 41.2064 -91.7100 259° West 423 487 36,000  Level Chicago Center
07:46PM 41.1844 -91.8589 259° West 418 481 36,000  Level Chicago Center
07:47PM 41.1619 -92.0089 259° West 419 482 36,000  Level Chicago Center
07:48PM 41.1403 -92.1572 259° West 416 479 36,000  Level Chicago Center
07:49PM 41.1122 -92.3386 258° West 423 487 36,000 -480 Level Chicago Center
07:50PM 41.0892 -92.4889 259° West 423 487 35,100 -1,020 Descending Chicago Center
07:51PM 41.0661 -92.6425 259° West 429 494 34,000 -540 Descending Chicago Center
07:52PM 41.0428 -92.7944 259° West 429 494 34,000  Level Chicago Center
07:53PM 41.0136 -92.9758 258° West 428 493 34,000  Level Chicago Center
07:54PM 40.9894 -93.1272 258° West 426 490 34,000  Level Chicago Center
07:55PM 40.9661 -93.2767 258° West 422 486 34,000  Level Chicago Center
07:56PM 40.9381 -93.4506 258° West 413 475 34,000  Level Minneapolis Center
07:57PM 40.9136 -93.5981 258° West 414 476 34,000  Level Minneapolis Center
07:58PM 40.8892 -93.7467 258° West 417 480 34,000  Level Minneapolis Center
07:59PM 40.8644 -93.8961 258° West 419 482 34,000  Level Minneapolis Center
08:00PM 40.8375 -94.0469 257° West 423 487 34,000  Level Minneapolis Center
08:01PM 40.8061 -94.2244 257° West 421 484 34,000  Level Minneapolis Center
08:02PM 40.7828 -94.3703 258° West 416 479 34,000  Level Minneapolis Center
08:03PM 40.7625 -94.4892 257° West 418 481 34,000  Level Minneapolis Center
08:04PM 40.7300 -94.6739 257° West 420 483 34,000  Level Minneapolis Center
08:05PM 40.7019 -94.8256 256° West 423 487 34,000  Level Minneapolis Center
08:06PM 40.6767 -94.9772 258° West 424 488 34,000  Level Minneapolis Center
08:07PM 40.6486 -95.1311 257° West 428 493 34,000  Level Minneapolis Center
08:09PM 40.6156 -95.3169 257° West 432 497 34,000  Level Minneapolis Center
08:10PM 40.5878 -95.4725 257° West 434 499 34,000  Level Minneapolis Center
08:11PM 40.5592 -95.6286 256° West 436 502 34,000  Level Minneapolis Center
08:12PM 40.5314 -95.7831 257° West 434 499 34,000  Level Minneapolis Center
08:13PM 40.4972 -95.9664 256° West 430 495 34,000  Level Minneapolis Center
08:14PM 40.4686 -96.1192 256° West 428 493 34,000  Level Minneapolis Center
08:15PM 40.4392 -96.2728 256° West 432 497 34,000  Level Minneapolis Center
08:16PM 40.4100 -96.4250 256° West 430 495 34,000  Level Minneapolis Center
08:17PM 40.3756 -96.6072 256° West 428 493 34,000  Level Minneapolis Center
08:18PM 40.3461 -96.7561 255° West 423 487 34,000  Level Minneapolis Center
08:19PM 40.3183 -96.9064 256° West 424 488 34,000  Level Minneapolis Center
08:20PM 40.2825 -97.0839 255° West 421 484 34,000  Level Minneapolis Center
08:21PM 40.2533 -97.2303 255° West 418 481 34,000  Level Minneapolis Center
08:22PM 40.2244 -97.3756 255° West 420 483 34,000  Level Minneapolis Center
08:23PM 40.1883 -97.5533 255° West 421 484 34,000  Level Minneapolis Center
08:24PM 40.1583 -97.7019 255° West 422 486 34,000 300 Level Minneapolis Center
08:25PM 40.1283 -97.8506 255° West 422 486 34,700 840 Climbing Minneapolis Center
08:26PM 40.0969 -98.0000 255° West 424 488 35,800 600 Climbing Minneapolis Center
08:27PM 40.0669 -98.1458 255° West 420 483 36,000 60 Climbing Minneapolis Center
08:29PM 40.0367 -98.2925 255° West 418 481 36,000  Level Minneapolis Center
08:30PM 40.0053 -98.4400 255° West 418 481 36,000  Level Minneapolis Center
08:31PM 39.9683 -98.6164 255° West 419 482 36,000  Level Minneapolis Center
08:32PM 39.9303 -98.7931 254° West 420 483 36,000  Level Minneapolis Center
08:32PM 39.9117 -98.8814 255° West 422 486 36,000  Level Denver Center
08:34PM 39.8864 -99.0003 255° West 425 489 36,000  Level Denver Center
08:35PM 39.8481 -99.1792 254° West 426 490 36,000  Level Denver Center
08:36PM 39.8147 -99.3272 254° West 426 490 36,000  Level Denver Center
08:37PM 39.7811 -99.4756 254° West 425 489 36,000  Level Denver Center
08:38PM 39.7425 -99.6542 254° West 430 495 36,000  Level Denver Center
08:39PM 39.7092 -99.8028 254° West 428 493 36,000  Level Denver Center
08:40PM 39.6728 -99.9606 253° West 430 495 36,000  Level Denver Center
08:41PM 39.6411 -100.1022 254° West 429 494 36,000  Level Denver Center
08:42PM 39.6078 -100.2450 253° West 429 494 36,000  Level Denver Center
08:43PM 39.5703 -100.4128 254° West 434 499 36,000  Level Denver Center
08:44PM 39.5361 -100.5567 253° West 435 501 36,000  Level Denver Center
08:45PM 39.4969 -100.7253 253° West 439 505 36,000  Level Denver Center
08:46PM 39.4625 -100.8728 253° West 443 510 36,000  Level Denver Center
08:47PM 39.4225 -101.0461 253° West 449 517 36,000  Level Denver Center
08:48PM 39.3861 -101.1933 252° West 448 516 36,000  Level Denver Center
08:49PM 39.3456 -101.3675 253° West 451 519 36,000  Level Denver Center
08:50PM 39.3092 -101.5125 252° West 445 512 36,000  Level Denver Center
08:51PM 39.2750 -101.6614 254° West 450 518 36,000  Level Denver Center
08:52PM 39.2325 -101.8300 252° West 441 507 36,000  Level Denver Center
08:53PM 39.1967 -101.9736 252° West 440 506 36,000  Level Denver Center
08:54PM 39.1558 -102.1419 253° West 441 507 36,000  Level Denver Center
08:55PM 39.1206 -102.2833 252° West 438 504 36,000  Level Denver Center
08:56PM 39.0906 -102.4014 252° West 437 503 36,000  Level Denver Center
08:57PM 39.0428 -102.5900 252° West 436 502 36,000  Level Denver Center
08:58PM 39.0019 -102.7542 252° West 435 501 36,000  Level Denver Center
08:59PM 38.9675 -102.8894 252° West 435 501 36,000  Level Denver Center
09:00PM 38.9303 -103.0356 252° West 433 498 36,000  Level Denver Center
09:01PM 38.8919 -103.1800 251° West 429 494 36,000  Level Denver Center
09:02PM 38.8492 -103.3497 252° West 420 483 36,000  Level Denver Center
09:03PM 38.8108 -103.4925 251° West 426 490 36,000  Level Denver Center
09:04PM 38.7750 -103.6294 251° West 425 489 36,000  Level Denver Center
09:05PM 38.7333 -103.7869 251° West 421 484 36,000  Level Denver Center
09:07PM 38.6983 -103.9225 252° West 419 482 36,000  Level Denver Center
09:08PM 38.6561 -104.0761 251° West 415 478 36,000  Level Denver Center
09:09PM 38.6156 -104.1867 245° Southwest 398 458 36,000  Level Denver Center
09:10PM 38.5150 -104.3064 223° Southwest 409 471 36,000  Level Denver Center
09:11PM 38.4328 -104.4033 223° Southwest 404 465 36,000  Level Denver Center
09:12PM 38.3497 -104.5008 223° Southwest 404 465 36,000  Level Denver Center
09:13PM 38.2742 -104.6042 227° Southwest 400 460 36,000  Level Denver Center
09:14PM 38.2408 -104.7272 251° West 385 443 36,000  Level Denver Center
09:15PM 38.2042 -104.8717 252° West 385 443 36,000  Level Denver Center
09:16PM 38.1783 -104.9758 253° West 388 447 36,000  Level Denver Center
09:17PM 38.1356 -105.1422 252° West 388 447 36,000  Level Denver Center
09:18PM 38.1042 -105.2675 252° West 389 448 36,000  Level Denver Center
09:19PM 38.0664 -105.4122 252° West 387 445 36,000  Level Denver Center
09:20PM 38.0342 -105.5367 252° West 389 448 36,000  Level Denver Center
09:21PM 37.9964 -105.6847 252° West 395 455 36,000  Level Denver Center
09:22PM 37.9633 -105.8108 252° West 395 455 36,000  Level Denver Center
09:23PM 37.9300 -105.9364 251° West 394 453 36,000  Level Denver Center
09:24PM 37.8922 -106.0814 252° West 390 449 36,000  Level Denver Center
09:25PM 37.8600 -106.2053 252° West 390 449 36,000  Level Denver Center
09:26PM 37.8208 -106.3494 251° West 389 448 36,000  Level Denver Center
09:27PM 37.7833 -106.4856 251° West 387 445 36,000  Level Denver Center
09:28PM 37.7508 -106.6111 252° West 393 452 36,000  Level Denver Center
09:29PM 37.7114 -106.7561 251° West 392 451 36,000  Level Denver Center
09:30PM 37.6781 -106.8775 251° West 384 442 36,000  Level Denver Center
09:31PM 37.6444 -107.0006 251° West 388 447 36,000  Level Denver Center
09:32PM 37.6064 -107.1453 252° West 390 449 36,000  Level Denver Center
09:33PM 37.5717 -107.2694 251° West 393 452 36,000  Level Denver Center
09:34PM 37.5306 -107.4150 250° West 395 455 36,000  Level Denver Center
09:35PM 37.4953 -107.5408 251° West 398 458 36,000  Level Denver Center
09:36PM 37.4664 -107.6461 251° West 399 459 36,000  Level Denver Center
09:37PM 37.4250 -107.7936 251° West 399 459 36,000  Level Denver Center
09:39PM 37.3778 -107.9572 250° West 392 451 36,000  Level Denver Center
09:40PM 37.3375 -108.1042 251° West 397 457 36,000  Level Denver Center
09:41PM 37.2961 -108.2456 250° West 390 449 36,000  Level Denver Center
09:42PM 37.2617 -108.3681 251° West 389 448 36,000  Level Denver Center
09:43PM 37.2317 -108.4675 249° West 384 442 36,000  Level Denver Center
09:44PM 37.1842 -108.6317 250° West 391 450 36,000  Level Denver Center
09:45PM 37.1433 -108.7742 250° West 390 449 36,000  Level Denver Center
09:46PM 37.1014 -108.9169 250° West 393 452 36,000  Level Denver Center
09:47PM 37.0594 -109.0594 250° West 391 450 36,000  Level Denver Center
09:48PM 37.0225 -109.1806 249° West 390 449 36,000  Level Denver Center
09:49PM 36.9814 -109.3233 250° West 392 451 36,000  Level Denver Center
09:50PM 36.9433 -109.4461 249° West 395 455 36,000  Level Denver Center
09:51PM 36.9014 -109.5872 250° West 390 449 36,000  Level Denver Center
09:52PM 36.8656 -109.7061 249° West 385 443 36,000  Level Denver Center
09:53PM 36.8233 -109.8464 249° West 385 443 36,000  Level Denver Center
09:54PM 36.7872 -109.9636 249° West 380 437 36,000  Level Denver Center
09:55PM 36.7458 -110.1022 250° West 381 438 36,000  Level Denver Center
09:56PM 36.7092 -110.2153 248° West 380 437 36,000  Level Denver Center
09:57PM 36.6717 -110.3392 249° West 382 440 36,000  Level Denver Center
09:58PM 36.6333 -110.4636 249° West 386 444 36,000  Level Denver Center
10:00PM 36.5872 -110.6128 249° West 385 443 36,000  Level Denver Center
10:01PM 36.5553 -110.7133 248° West 388 447 36,000  Level Denver Center
10:02PM 36.5075 -110.8631 248° West 388 447 36,000  Level Denver Center
10:03PM 36.4700 -110.9858 249° West 384 442 36,000  Level Denver Center
10:04PM 36.4322 -111.1089 249° West 381 438 36,000  Level Denver Center
10:05PM 36.3911 -111.2325 248° West 385 443 36,000  Level Denver Center
10:06PM 36.3453 -111.3808 249° West 384 442 36,000  Level Denver Center
10:07PM 36.3039 -111.5047 248° West 386 444 36,000  Level Denver Center
10:08PM 36.2567 -111.6508 248° West 383 441 36,000  Level Denver Center
10:09PM 36.2319 -111.7261 248° West 383 441 36,000  Level Los Angeles Center
10:10PM 36.1864 -111.8469 245° Southwest 387 445 36,000  Level Los Angeles Center
10:11PM 36.1386 -111.9772 246° West 390 449 36,000  Level Los Angeles Center
10:12PM 36.0950 -112.1000 246° West 393 452 36,000  Level Los Angeles Center
10:13PM 36.0503 -112.2197 245° Southwest 389 448 36,000  Level Los Angeles Center
10:14PM 35.9997 -112.3569 246° West 382 440 36,000  Level Los Angeles Center
10:15PM 35.9564 -112.4761 246° West 382 440 36,000  Level Los Angeles Center
10:16PM 35.9097 -112.6008 245° Southwest 387 445 36,000  Level Los Angeles Center
10:17PM 35.8658 -112.7186 245° Southwest 383 441 36,000  Level Los Angeles Center
10:18PM 35.8311 -112.8103 245° Southwest 378 435 36,000  Level Los Angeles Center
10:19PM 35.7694 -112.9753 245° Southwest 382 440 36,000  Level Los Angeles Center
10:20PM 35.7258 -113.0933 246° West 384 442 36,000  Level Los Angeles Center
10:21PM 35.6758 -113.2228 245° Southwest 387 445 36,000  Level Los Angeles Center
10:22PM 35.6350 -113.3314 245° Southwest 392 451 36,000  Level Los Angeles Center
10:23PM 35.5889 -113.4497 244° Southwest 390 449 36,000  Level Los Angeles Center
10:24PM 35.5350 -113.5919 245° Southwest 388 447 36,000  Level Los Angeles Center
10:25PM 35.4892 -113.7117 245° Southwest 391 450 36,000  Level Los Angeles Center
10:26PM 35.4431 -113.8297 244° Southwest 388 447 36,000  Level Los Angeles Center
10:27PM 35.3975 -113.9469 245° Southwest 393 452 36,000  Level Los Angeles Center
10:28PM 35.3419 -114.0889 244° Southwest 384 442 36,000  Level Los Angeles Center
10:29PM 35.2944 -114.2069 244° Southwest 383 441 36,000  Level Los Angeles Center
10:30PM 35.2492 -114.3258 245° Southwest 385 443 36,000  Level Los Angeles Center
10:31PM 35.2028 -114.4444 244° Southwest 386 444 36,000  Level Los Angeles Center
10:32PM 35.1550 -114.5639 244° Southwest 389 448 36,000  Level Los Angeles Center
10:33PM 35.1067 -114.6839 244° Southwest 394 453 36,000  Level Los Angeles Center
10:34PM 35.0608 -114.8028 245° Southwest 387 445 36,000  Level Los Angeles Center
10:35PM 35.0125 -114.9206 243° Southwest 388 447 36,000 -240 Level Los Angeles Center
10:36PM 34.9556 -115.0622 244° Southwest 388 447 35,600 -660 Descending Los Angeles Center
10:38PM 34.9086 -115.1822 245° Southwest 392 451 34,700 -960 Descending Los Angeles Center
10:39PM 34.8597 -115.3042 244° Southwest 398 458 33,700 -1,020 Descending Los Angeles Center
10:40PM 34.8103 -115.4233 243° Southwest 396 456 32,700 -960 Descending Los Angeles Center
10:41PM 34.7725 -115.5181 244° Southwest 391 450 31,800 -1,080 Descending Los Angeles Center
10:42PM 34.7128 -115.6642 244° Southwest 382 440 30,500 -1,140 Descending Los Angeles Center
10:43PM 34.6656 -115.7794 244° Southwest 381 438 29,500 -1,020 Descending Los Angeles Center
10:44PM 34.6192 -115.8919 243° Southwest 376 433 28,500 -900 Descending Los Angeles Center
10:45PM 34.5825 -115.9803 243° Southwest 371 427 27,700 -780 Descending Los Angeles Center
10:46PM 34.5267 -116.1136 243° Southwest 370 426 27,000 -360 Descending Los Angeles Center
10:47PM 34.4806 -116.2236 243° Southwest 366 421 27,000  Level Los Angeles Center
10:48PM 34.4267 -116.3558 244° Southwest 366 421 27,000 -300 Level Los Angeles Center
10:49PM 34.3789 -116.4656 242° Southwest 367 422 26,500 -840 Descending Los Angeles Center
10:50PM 34.3422 -116.5547 244° Southwest 369 425 25,300 -1,260 Descending Los Angeles Center
10:51PM 34.2875 -116.6847 243° Southwest 362 417 24,000 -1,140 Descending Los Angeles Center
10:52PM 34.2419 -116.7917 243° Southwest 359 413 23,000 -900 Descending Los Angeles Center
10:53PM 34.1969 -116.8983 243° Southwest 356 410 22,000 -1,020 Descending Los Angeles Center
10:54PM 34.1444 -117.0219 243° Southwest 346 398 20,800 -1,800 Descending Los Angeles Center
10:55PM 34.0933 -117.1433 243° Southwest 339 390 18,300 -2,280 Descending Los Angeles Center
10:56PM 34.0667 -117.2000 240° Southwest 345 397 17,200 -1,920 Descending Southern California TRACON
10:57PM 34.0500 -117.3167 260° West 331 381 15,400 -1,200 Descending Southern California TRACON
10:58PM 34.0333 -117.4167 259° West 309 356 14,800 -1,560 Descending Southern California TRACON
10:59PM 34.0333 -117.5167 270° West 316 364 12,300 -2,400 Descending Southern California TRACON
11:00PM 34.0333 -117.6167 270° West 337 388 10,300 -1,380 Descending Southern California TRACON
11:01PM 34.0167 -117.7167 259° West 285 328 9,700 -1,020 Descending Southern California TRACON
11:02PM 34.0167 -117.8167 270° West 275 316 8,300 -1,380 Descending Southern California TRACON
11:03PM 34.0000 -117.9167 259° West 271 312 6,900 -1,020 Descending Southern California TRACON
11:05PM 33.9872 -118.0636 264° West 245 282 5,300 -960 Descending Los Angeles Center
11:06PM 33.9794 -118.1403 263° West 236 272 4,200 -1,200 Descending Los Angeles Center
11:07PM 33.9703 -118.2256 263° West 221 254 2,900 -1,140 Descending Los Angeles Center
11:08PM 33.9639 -118.2892 263° West 206 237 1,900 -960 Descending Los Angeles Center
11:09PM 33.9583 -118.3439 263° West 182 209 1,000 -780 Descending Los Angeles Center
11:10PM 33.9539 -118.3911 264° West 156 180 300 -480 Descending Los Angeles Center
11:11PM 33.9481 -118.4381 261° West 154 177 100 -240 Descending Los Angeles Center